sensor_id;sensor_type;location;lat;lon;timestamp;P1;durP1;ratioP1;P2;durP2;ratioP2
73980;SDS011;62348;51.412;5.436;2022-09-27T00:01:57;3.83;;;2.42;;
73980;SDS011;62348;51.412;5.436;2022-09-27T00:04:22;9.57;;;2.58;;
73980;SDS011;62348;51.412;5.436;2022-09-27T00:06:47;6.85;;;2.58;;
73980;SDS011;62348;51.412;5.436;2022-09-27T00:09:13;9.48;;;2.90;;
73980;SDS011;62348;51.412;5.436;2022-09-27T00:11:39;7.32;;;2.72;;
73980;SDS011;62348;51.412;5.436;2022-09-27T00:14:06;11.35;;;2.55;;
73980;SDS011;62348;51.412;5.436;2022-09-27T00:16:34;5.72;;;2.33;;
73980;SDS011;62348;51.412;5.436;2022-09-27T00:19:03;5.95;;;2.45;;
73980;SDS011;62348;51.412;5.436;2022-09-27T00:21:30;3.42;;;1.83;;
73980;SDS011;62348;51.412;5.436;2022-09-27T00:23:56;3.83;;;1.83;;
73980;SDS011;62348;51.412;5.436;2022-09-27T00:26:23;4.57;;;1.77;;
73980;SDS011;62348;51.412;5.436;2022-09-27T00:28:49;5.70;;;2.28;;
73980;SDS011;62348;51.412;5.436;2022-09-27T00:31:22;5.45;;;1.80;;
73980;SDS011;62348;51.412;5.436;2022-09-27T00:33:50;5.00;;;1.90;;
73980;SDS011;62348;51.412;5.436;2022-09-27T00:36:17;3.70;;;1.58;;
73980;SDS011;62348;51.412;5.436;2022-09-27T00:38:44;5.95;;;1.45;;
73980;SDS011;62348;51.412;5.436;2022-09-27T00:41:14;6.32;;;1.58;;
73980;SDS011;62348;51.412;5.436;2022-09-27T00:43:49;4.32;;;1.50;;
73980;SDS011;62348;51.412;5.436;2022-09-27T00:46:25;9.35;;;1.98;;
73980;SDS011;62348;51.412;5.436;2022-09-27T00:51:34;5.40;;;1.40;;
73980;SDS011;62348;51.412;5.436;2022-09-27T00:54:04;3.90;;;1.25;;
73980;SDS011;62348;51.412;5.436;2022-09-27T00:56:31;5.25;;;1.13;;
73980;SDS011;62348;51.412;5.436;2022-09-27T00:58:58;2.95;;;1.10;;
73980;SDS011;62348;51.412;5.436;2022-09-27T01:01:27;3.53;;;1.13;;
73980;SDS011;62348;51.412;5.436;2022-09-27T01:06:30;6.53;;;1.50;;
73980;SDS011;62348;51.412;5.436;2022-09-27T01:08:55;4.93;;;1.88;;
73980;SDS011;62348;51.412;5.436;2022-09-27T01:17:00;4.22;;;1.35;;
73980;SDS011;62348;51.412;5.436;2022-09-27T01:22:33;3.55;;;1.38;;
73980;SDS011;62348;51.412;5.436;2022-09-27T01:30:35;3.33;;;1.10;;
73980;SDS011;62348;51.412;5.436;2022-09-27T01:33:20;4.72;;;1.27;;
73980;SDS011;62348;51.412;5.436;2022-09-27T01:41:39;4.63;;;1.42;;
73980;SDS011;62348;51.412;5.436;2022-09-27T01:44:48;4.65;;;1.42;;
73980;SDS011;62348;51.412;5.436;2022-09-27T01:47:19;4.60;;;2.05;;
73980;SDS011;62348;51.412;5.436;2022-09-27T01:52:36;7.57;;;1.60;;
73980;SDS011;62348;51.412;5.436;2022-09-27T01:55:05;6.57;;;1.50;;
73980;SDS011;62348;51.412;5.436;2022-09-27T01:57:39;5.05;;;1.30;;
73980;SDS011;62348;51.412;5.436;2022-09-27T02:00:08;3.42;;;1.35;;
73980;SDS011;62348;51.412;5.436;2022-09-27T02:02:37;5.82;;;1.80;;
73980;SDS011;62348;51.412;5.436;2022-09-27T02:05:06;4.00;;;1.50;;
73980;SDS011;62348;51.412;5.436;2022-09-27T02:07:48;4.72;;;1.08;;
73980;SDS011;62348;51.412;5.436;2022-09-27T02:10:22;4.75;;;1.60;;
73980;SDS011;62348;51.412;5.436;2022-09-27T02:12:53;6.63;;;1.55;;
73980;SDS011;62348;51.412;5.436;2022-09-27T02:15:31;5.22;;;1.60;;
73980;SDS011;62348;51.412;5.436;2022-09-27T02:18:22;4.90;;;1.45;;
73980;SDS011;62348;51.412;5.436;2022-09-27T02:21:01;5.72;;;2.35;;
73980;SDS011;62348;51.412;5.436;2022-09-27T02:23:35;6.05;;;1.85;;
73980;SDS011;62348;51.412;5.436;2022-09-27T02:26:19;2.85;;;1.35;;
73980;SDS011;62348;51.412;5.436;2022-09-27T02:29:11;6.47;;;1.48;;
73980;SDS011;62348;51.412;5.436;2022-09-27T02:31:44;4.38;;;0.90;;
73980;SDS011;62348;51.412;5.436;2022-09-27T02:34:23;3.20;;;0.98;;
73980;SDS011;62348;51.412;5.436;2022-09-27T02:36:52;3.50;;;0.80;;
73980;SDS011;62348;51.412;5.436;2022-09-27T02:39:18;3.08;;;1.00;;
73980;SDS011;62348;51.412;5.436;2022-09-27T02:41:44;4.10;;;1.02;;
73980;SDS011;62348;51.412;5.436;2022-09-27T02:44:10;5.53;;;1.02;;
73980;SDS011;62348;51.412;5.436;2022-09-27T02:52:08;4.80;;;1.20;;
73980;SDS011;62348;51.412;5.436;2022-09-27T02:55:02;3.47;;;1.20;;
73980;SDS011;62348;51.412;5.436;2022-09-27T03:00:16;3.85;;;0.98;;
73980;SDS011;62348;51.412;5.436;2022-09-27T03:05:53;8.07;;;2.45;;
73980;SDS011;62348;51.412;5.436;2022-09-27T03:08:27;3.97;;;1.05;;
73980;SDS011;62348;51.412;5.436;2022-09-27T03:10:52;2.22;;;0.90;;
73980;SDS011;62348;51.412;5.436;2022-09-27T03:13:18;5.32;;;1.67;;
73980;SDS011;62348;51.412;5.436;2022-09-27T03:15:43;4.70;;;1.10;;
73980;SDS011;62348;51.412;5.436;2022-09-27T03:18:08;5.43;;;1.25;;
73980;SDS011;62348;51.412;5.436;2022-09-27T03:20:34;2.30;;;1.30;;
73980;SDS011;62348;51.412;5.436;2022-09-27T03:22:59;7.78;;;1.30;;
73980;SDS011;62348;51.412;5.436;2022-09-27T03:25:25;5.85;;;1.02;;
73980;SDS011;62348;51.412;5.436;2022-09-27T03:27:50;6.70;;;1.38;;
73980;SDS011;62348;51.412;5.436;2022-09-27T03:30:16;6.72;;;1.40;;
73980;SDS011;62348;51.412;5.436;2022-09-27T03:32:42;6.75;;;1.55;;
73980;SDS011;62348;51.412;5.436;2022-09-27T03:35:08;4.43;;;1.65;;
73980;SDS011;62348;51.412;5.436;2022-09-27T03:37:34;4.35;;;1.10;;
73980;SDS011;62348;51.412;5.436;2022-09-27T03:39:59;6.28;;;1.58;;
73980;SDS011;62348;51.412;5.436;2022-09-27T03:42:25;7.55;;;1.20;;
73980;SDS011;62348;51.412;5.436;2022-09-27T03:44:50;9.98;;;1.73;;
73980;SDS011;62348;51.412;5.436;2022-09-27T03:47:16;5.90;;;1.17;;
73980;SDS011;62348;51.412;5.436;2022-09-27T03:49:41;7.15;;;1.45;;
73980;SDS011;62348;51.412;5.436;2022-09-27T03:52:06;5.63;;;1.35;;
73980;SDS011;62348;51.412;5.436;2022-09-27T03:54:32;4.85;;;1.45;;
73980;SDS011;62348;51.412;5.436;2022-09-27T03:56:57;4.50;;;1.20;;
73980;SDS011;62348;51.412;5.436;2022-09-27T03:59:23;3.28;;;1.10;;
73980;SDS011;62348;51.412;5.436;2022-09-27T04:01:48;5.35;;;1.20;;
73980;SDS011;62348;51.412;5.436;2022-09-27T04:04:14;8.70;;;1.33;;
73980;SDS011;62348;51.412;5.436;2022-09-27T04:06:39;6.43;;;1.23;;
73980;SDS011;62348;51.412;5.436;2022-09-27T04:09:04;3.53;;;1.08;;
73980;SDS011;62348;51.412;5.436;2022-09-27T04:11:30;7.13;;;2.00;;
73980;SDS011;62348;51.412;5.436;2022-09-27T04:13:55;4.85;;;1.73;;
73980;SDS011;62348;51.412;5.436;2022-09-27T04:16:21;6.63;;;2.75;;
73980;SDS011;62348;51.412;5.436;2022-09-27T04:18:47;5.75;;;1.33;;
73980;SDS011;62348;51.412;5.436;2022-09-27T04:21:12;4.35;;;1.00;;
73980;SDS011;62348;51.412;5.436;2022-09-27T04:23:38;2.40;;;1.00;;
73980;SDS011;62348;51.412;5.436;2022-09-27T04:26:04;3.05;;;1.05;;
73980;SDS011;62348;51.412;5.436;2022-09-27T04:28:29;5.10;;;1.13;;
73980;SDS011;62348;51.412;5.436;2022-09-27T04:30:56;3.70;;;1.35;;
73980;SDS011;62348;51.412;5.436;2022-09-27T04:33:21;6.43;;;1.15;;
73980;SDS011;62348;51.412;5.436;2022-09-27T04:35:47;5.03;;;1.55;;
73980;SDS011;62348;51.412;5.436;2022-09-27T04:38:31;2.78;;;0.75;;
73980;SDS011;62348;51.412;5.436;2022-09-27T04:40:57;5.85;;;1.02;;
73980;SDS011;62348;51.412;5.436;2022-09-27T04:43:25;3.22;;;1.40;;
73980;SDS011;62348;51.412;5.436;2022-09-27T04:45:50;2.90;;;1.33;;
73980;SDS011;62348;51.412;5.436;2022-09-27T04:48:16;4.25;;;1.23;;
73980;SDS011;62348;51.412;5.436;2022-09-27T04:50:41;2.60;;;1.30;;
73980;SDS011;62348;51.412;5.436;2022-09-27T04:53:06;4.53;;;1.45;;
73980;SDS011;62348;51.412;5.436;2022-09-27T04:55:32;4.57;;;0.80;;
73980;SDS011;62348;51.412;5.436;2022-09-27T04:57:58;2.30;;;0.73;;
73980;SDS011;62348;51.412;5.436;2022-09-27T05:00:25;5.93;;;1.83;;
73980;SDS011;62348;51.412;5.436;2022-09-27T05:02:52;4.13;;;0.95;;
73980;SDS011;62348;51.412;5.436;2022-09-27T05:05:17;3.28;;;1.20;;
73980;SDS011;62348;51.412;5.436;2022-09-27T05:07:43;4.93;;;0.80;;
73980;SDS011;62348;51.412;5.436;2022-09-27T05:10:08;2.17;;;0.60;;
73980;SDS011;62348;51.412;5.436;2022-09-27T05:12:34;4.05;;;0.85;;
73980;SDS011;62348;51.412;5.436;2022-09-27T05:15:00;4.03;;;0.98;;
73980;SDS011;62348;51.412;5.436;2022-09-27T05:17:26;3.42;;;0.68;;
73980;SDS011;62348;51.412;5.436;2022-09-27T05:19:51;2.05;;;0.80;;
73980;SDS011;62348;51.412;5.436;2022-09-27T05:22:17;6.07;;;1.98;;
73980;SDS011;62348;51.412;5.436;2022-09-27T05:24:43;2.25;;;0.70;;
73980;SDS011;62348;51.412;5.436;2022-09-27T05:27:08;2.05;;;0.80;;
73980;SDS011;62348;51.412;5.436;2022-09-27T05:29:40;3.75;;;1.00;;
73980;SDS011;62348;51.412;5.436;2022-09-27T05:32:06;2.30;;;1.10;;
73980;SDS011;62348;51.412;5.436;2022-09-27T05:34:31;2.38;;;1.10;;
73980;SDS011;62348;51.412;5.436;2022-09-27T05:36:56;3.72;;;1.02;;
73980;SDS011;62348;51.412;5.436;2022-09-27T05:39:22;3.08;;;0.60;;
73980;SDS011;62348;51.412;5.436;2022-09-27T05:41:48;2.30;;;0.50;;
73980;SDS011;62348;51.412;5.436;2022-09-27T05:44:14;0.93;;;0.55;;
73980;SDS011;62348;51.412;5.436;2022-09-27T05:46:40;1.92;;;0.60;;
73980;SDS011;62348;51.412;5.436;2022-09-27T05:49:06;2.10;;;0.43;;
73980;SDS011;62348;51.412;5.436;2022-09-27T05:51:31;1.40;;;0.63;;
73980;SDS011;62348;51.412;5.436;2022-09-27T05:53:57;1.85;;;0.60;;
73980;SDS011;62348;51.412;5.436;2022-09-27T05:56:22;2.00;;;0.60;;
73980;SDS011;62348;51.412;5.436;2022-09-27T05:58:49;2.45;;;0.60;;
73980;SDS011;62348;51.412;5.436;2022-09-27T06:01:15;2.92;;;0.80;;
73980;SDS011;62348;51.412;5.436;2022-09-27T06:03:41;3.95;;;1.02;;
73980;SDS011;62348;51.412;5.436;2022-09-27T06:06:07;3.30;;;0.98;;
73980;SDS011;62348;51.412;5.436;2022-09-27T06:08:35;1.70;;;0.80;;
73980;SDS011;62348;51.412;5.436;2022-09-27T06:11:03;2.72;;;0.90;;
73980;SDS011;62348;51.412;5.436;2022-09-27T06:13:29;1.45;;;1.10;;
73980;SDS011;62348;51.412;5.436;2022-09-27T06:15:55;2.25;;;1.20;;
73980;SDS011;62348;51.412;5.436;2022-09-27T06:18:22;2.60;;;1.30;;
73980;SDS011;62348;51.412;5.436;2022-09-27T06:20:48;1.85;;;1.30;;
73980;SDS011;62348;51.412;5.436;2022-09-27T06:23:14;2.65;;;1.60;;
73980;SDS011;62348;51.412;5.436;2022-09-27T06:25:45;5.82;;;2.00;;
73980;SDS011;62348;51.412;5.436;2022-09-27T06:28:11;5.13;;;1.90;;
73980;SDS011;62348;51.412;5.436;2022-09-27T06:30:38;4.15;;;2.00;;
73980;SDS011;62348;51.412;5.436;2022-09-27T06:33:05;3.10;;;2.00;;
73980;SDS011;62348;51.412;5.436;2022-09-27T06:35:33;2.63;;;2.20;;
73980;SDS011;62348;51.412;5.436;2022-09-27T06:38:02;5.55;;;2.22;;
73980;SDS011;62348;51.412;5.436;2022-09-27T06:40:29;4.57;;;2.22;;
73980;SDS011;62348;51.412;5.436;2022-09-27T06:43:00;3.40;;;2.20;;
73980;SDS011;62348;51.412;5.436;2022-09-27T06:45:26;4.93;;;2.25;;
73980;SDS011;62348;51.412;5.436;2022-09-27T06:47:52;6.38;;;2.42;;
73980;SDS011;62348;51.412;5.436;2022-09-27T06:50:17;2.88;;;2.30;;
73980;SDS011;62348;51.412;5.436;2022-09-27T06:52:46;3.53;;;2.22;;
73980;SDS011;62348;51.412;5.436;2022-09-27T06:55:13;3.05;;;1.83;;
73980;SDS011;62348;51.412;5.436;2022-09-27T06:57:39;2.95;;;1.73;;
73980;SDS011;62348;51.412;5.436;2022-09-27T07:00:23;3.45;;;2.00;;
73980;SDS011;62348;51.412;5.436;2022-09-27T07:02:49;2.30;;;1.52;;
73980;SDS011;62348;51.412;5.436;2022-09-27T07:05:15;4.47;;;1.73;;
73980;SDS011;62348;51.412;5.436;2022-09-27T07:07:41;3.28;;;2.05;;
73980;SDS011;62348;51.412;5.436;2022-09-27T07:10:08;2.42;;;2.22;;
73980;SDS011;62348;51.412;5.436;2022-09-27T07:12:34;5.07;;;1.75;;
73980;SDS011;62348;51.412;5.436;2022-09-27T07:15:00;4.20;;;1.98;;
73980;SDS011;62348;51.412;5.436;2022-09-27T07:17:26;2.10;;;1.90;;
73980;SDS011;62348;51.412;5.436;2022-09-27T07:19:52;2.20;;;2.00;;
73980;SDS011;62348;51.412;5.436;2022-09-27T07:22:18;4.68;;;2.58;;
73980;SDS011;62348;51.412;5.436;2022-09-27T07:24:43;3.05;;;2.40;;
73980;SDS011;62348;51.412;5.436;2022-09-27T07:27:09;2.85;;;2.65;;
73980;SDS011;62348;51.412;5.436;2022-09-27T07:29:34;3.63;;;3.05;;
73980;SDS011;62348;51.412;5.436;2022-09-27T07:32:00;5.65;;;3.10;;
73980;SDS011;62348;51.412;5.436;2022-09-27T07:34:26;5.22;;;3.30;;
73980;SDS011;62348;51.412;5.436;2022-09-27T07:36:52;5.80;;;3.92;;
73980;SDS011;62348;51.412;5.436;2022-09-27T07:39:19;5.28;;;3.63;;
73980;SDS011;62348;51.412;5.436;2022-09-27T07:41:46;6.68;;;4.43;;
73980;SDS011;62348;51.412;5.436;2022-09-27T07:44:12;4.95;;;4.10;;
73980;SDS011;62348;51.412;5.436;2022-09-27T07:46:40;6.22;;;4.65;;
73980;SDS011;62348;51.412;5.436;2022-09-27T07:49:05;7.03;;;4.35;;
73980;SDS011;62348;51.412;5.436;2022-09-27T07:51:31;6.60;;;4.80;;
73980;SDS011;62348;51.412;5.436;2022-09-27T07:53:56;7.95;;;6.22;;
73980;SDS011;62348;51.412;5.436;2022-09-27T07:56:21;7.00;;;5.40;;
73980;SDS011;62348;51.412;5.436;2022-09-27T07:58:47;9.80;;;5.40;;
73980;SDS011;62348;51.412;5.436;2022-09-27T08:01:12;10.82;;;5.38;;
73980;SDS011;62348;51.412;5.436;2022-09-27T08:03:38;9.73;;;5.57;;
73980;SDS011;62348;51.412;5.436;2022-09-27T08:06:04;8.45;;;5.30;;
73980;SDS011;62348;51.412;5.436;2022-09-27T08:08:30;11.45;;;6.05;;
73980;SDS011;62348;51.412;5.436;2022-09-27T08:10:55;6.75;;;5.68;;
73980;SDS011;62348;51.412;5.436;2022-09-27T08:13:21;7.30;;;5.15;;
73980;SDS011;62348;51.412;5.436;2022-09-27T08:15:46;7.10;;;5.13;;
73980;SDS011;62348;51.412;5.436;2022-09-27T08:18:12;7.03;;;4.93;;
73980;SDS011;62348;51.412;5.436;2022-09-27T08:20:38;7.00;;;5.40;;
73980;SDS011;62348;51.412;5.436;2022-09-27T08:23:04;8.90;;;5.03;;
73980;SDS011;62348;51.412;5.436;2022-09-27T08:25:30;8.68;;;5.07;;
73980;SDS011;62348;51.412;5.436;2022-09-27T08:27:59;7.50;;;5.32;;
73980;SDS011;62348;51.412;5.436;2022-09-27T08:30:28;8.23;;;5.10;;
73980;SDS011;62348;51.412;5.436;2022-09-27T08:32:56;9.18;;;5.85;;
73980;SDS011;62348;51.412;5.436;2022-09-27T08:35:23;9.18;;;6.80;;
73980;SDS011;62348;51.412;5.436;2022-09-27T08:37:52;9.30;;;6.00;;
73980;SDS011;62348;51.412;5.436;2022-09-27T08:40:18;9.82;;;6.15;;
73980;SDS011;62348;51.412;5.436;2022-09-27T08:42:56;9.50;;;6.95;;
73980;SDS011;62348;51.412;5.436;2022-09-27T08:45:31;8.55;;;7.68;;
73980;SDS011;62348;51.412;5.436;2022-09-27T08:48:03;10.40;;;8.70;;
73980;SDS011;62348;51.412;5.436;2022-09-27T08:50:36;11.25;;;8.85;;
73980;SDS011;62348;51.412;5.436;2022-09-27T08:55:42;12.13;;;10.82;;
73980;SDS011;62348;51.412;5.436;2022-09-27T08:58:11;12.45;;;10.25;;
73980;SDS011;62348;51.412;5.436;2022-09-27T09:00:42;12.43;;;10.00;;
73980;SDS011;62348;51.412;5.436;2022-09-27T09:03:12;12.85;;;10.07;;
73980;SDS011;62348;51.412;5.436;2022-09-27T09:05:42;13.32;;;11.13;;
73980;SDS011;62348;51.412;5.436;2022-09-27T09:14:36;12.10;;;10.65;;
73980;SDS011;62348;51.412;5.436;2022-09-27T09:17:15;11.90;;;10.45;;
73980;SDS011;62348;51.412;5.436;2022-09-27T09:33:40;16.45;;;12.57;;
73980;SDS011;62348;51.412;5.436;2022-09-27T09:36:30;15.10;;;11.68;;
73980;SDS011;62348;51.412;5.436;2022-09-27T09:39:04;13.77;;;11.85;;
73980;SDS011;62348;51.412;5.436;2022-09-27T09:41:40;15.20;;;12.43;;
73980;SDS011;62348;51.412;5.436;2022-09-27T09:44:17;15.77;;;12.73;;
73980;SDS011;62348;51.412;5.436;2022-09-27T09:52:01;13.73;;;12.32;;
73980;SDS011;62348;51.412;5.436;2022-09-27T09:54:41;14.00;;;12.00;;
73980;SDS011;62348;51.412;5.436;2022-09-27T09:57:14;13.00;;;11.63;;
73980;SDS011;62348;51.412;5.436;2022-09-27T09:59:48;13.70;;;11.48;;
73980;SDS011;62348;51.412;5.436;2022-09-27T10:05:01;12.98;;;11.45;;
73980;SDS011;62348;51.412;5.436;2022-09-27T10:07:28;10.85;;;8.85;;
73980;SDS011;62348;51.412;5.436;2022-09-27T10:09:56;8.43;;;6.80;;
73980;SDS011;62348;51.412;5.436;2022-09-27T10:12:25;8.93;;;7.93;;
73980;SDS011;62348;51.412;5.436;2022-09-27T10:14:51;12.18;;;7.38;;
73980;SDS011;62348;51.412;5.436;2022-09-27T10:17:19;8.15;;;6.82;;
73980;SDS011;62348;51.412;5.436;2022-09-27T10:19:48;8.15;;;6.47;;
73980;SDS011;62348;51.412;5.436;2022-09-27T10:22:22;11.52;;;4.28;;
73980;SDS011;62348;51.412;5.436;2022-09-27T10:24:55;3.50;;;2.53;;
73980;SDS011;62348;51.412;5.436;2022-09-27T10:27:22;5.30;;;2.30;;
73980;SDS011;62348;51.412;5.436;2022-09-27T10:29:55;7.43;;;2.88;;
73980;SDS011;62348;51.412;5.436;2022-09-27T10:32:23;2.15;;;1.95;;
73980;SDS011;62348;51.412;5.436;2022-09-27T10:34:51;3.47;;;1.30;;
73980;SDS011;62348;51.412;5.436;2022-09-27T10:37:18;2.97;;;2.30;;
73980;SDS011;62348;51.412;5.436;2022-09-27T10:39:47;2.45;;;1.20;;
73980;SDS011;62348;51.412;5.436;2022-09-27T10:44:56;1.08;;;0.98;;
73980;SDS011;62348;51.412;5.436;2022-09-27T10:47:22;3.30;;;1.20;;
73980;SDS011;62348;51.412;5.436;2022-09-27T10:49:50;2.45;;;1.25;;
73980;SDS011;62348;51.412;5.436;2022-09-27T10:52:20;3.33;;;1.20;;
73980;SDS011;62348;51.412;5.436;2022-09-27T10:54:54;2.50;;;1.15;;
73980;SDS011;62348;51.412;5.436;2022-09-27T10:57:23;1.85;;;1.10;;
73980;SDS011;62348;51.412;5.436;2022-09-27T10:59:59;1.58;;;0.90;;
73980;SDS011;62348;51.412;5.436;2022-09-27T11:05:08;2.80;;;1.02;;
73980;SDS011;62348;51.412;5.436;2022-09-27T11:07:37;4.57;;;1.48;;
73980;SDS011;62348;51.412;5.436;2022-09-27T11:10:33;1.73;;;1.48;;
73980;SDS011;62348;51.412;5.436;2022-09-27T11:13:07;4.63;;;1.30;;
73980;SDS011;62348;51.412;5.436;2022-09-27T11:15:54;3.47;;;1.20;;
73980;SDS011;62348;51.412;5.436;2022-09-27T11:21:29;4.43;;;1.80;;
73980;SDS011;62348;51.412;5.436;2022-09-27T11:32:32;1.30;;;0.60;;
73980;SDS011;62348;51.412;5.436;2022-09-27T11:37:57;2.25;;;0.80;;
73980;SDS011;62348;51.412;5.436;2022-09-27T11:57:52;2.15;;;0.90;;
73980;SDS011;62348;51.412;5.436;2022-09-27T12:00:34;2.13;;;0.80;;
73980;SDS011;62348;51.412;5.436;2022-09-27T12:06:17;1.77;;;0.50;;
73980;SDS011;62348;51.412;5.436;2022-09-27T12:08:48;1.02;;;0.55;;
73980;SDS011;62348;51.412;5.436;2022-09-27T12:11:44;3.10;;;2.58;;
73980;SDS011;62348;51.412;5.436;2022-09-27T12:17:15;1.88;;;0.70;;
73980;SDS011;62348;51.412;5.436;2022-09-27T12:19:45;1.73;;;0.57;;
73980;SDS011;62348;51.412;5.436;2022-09-27T12:22:17;1.25;;;0.75;;
73980;SDS011;62348;51.412;5.436;2022-09-27T12:24:46;1.42;;;0.70;;
73980;SDS011;62348;51.412;5.436;2022-09-27T12:27:15;2.58;;;0.70;;
73980;SDS011;62348;51.412;5.436;2022-09-27T12:30:02;1.15;;;0.73;;
73980;SDS011;62348;51.412;5.436;2022-09-27T12:32:48;1.25;;;0.85;;
73980;SDS011;62348;51.412;5.436;2022-09-27T12:36:02;4.10;;;1.40;;
73980;SDS011;62348;51.412;5.436;2022-09-27T12:38:16;1.77;;;0.90;;
73980;SDS011;62348;51.412;5.436;2022-09-27T12:40:52;3.08;;;1.15;;
73980;SDS011;62348;51.412;5.436;2022-09-27T12:43:22;1.75;;;0.85;;
73980;SDS011;62348;51.412;5.436;2022-09-27T12:57:02;2.25;;;1.30;;
73980;SDS011;62348;51.412;5.436;2022-09-27T13:00:19;3.67;;;1.20;;
73980;SDS011;62348;51.412;5.436;2022-09-27T13:11:33;3.60;;;2.05;;
73980;SDS011;62348;51.412;5.436;2022-09-27T13:14:15;4.32;;;1.60;;
73980;SDS011;62348;51.412;5.436;2022-09-27T13:16:44;3.08;;;2.00;;
73980;SDS011;62348;51.412;5.436;2022-09-27T13:19:35;5.70;;;2.45;;
73980;SDS011;62348;51.412;5.436;2022-09-27T13:22:07;5.38;;;2.72;;
73980;SDS011;62348;51.412;5.436;2022-09-27T13:24:39;4.40;;;2.08;;
73980;SDS011;62348;51.412;5.436;2022-09-27T13:32:33;6.65;;;2.60;;
73980;SDS011;62348;51.412;5.436;2022-09-27T13:35:20;4.95;;;2.65;;
73980;SDS011;62348;51.412;5.436;2022-09-27T13:37:52;5.88;;;2.83;;
73980;SDS011;62348;51.412;5.436;2022-09-27T13:51:00;5.20;;;2.38;;
73980;SDS011;62348;51.412;5.436;2022-09-27T13:56:01;2.55;;;1.75;;
73980;SDS011;62348;51.412;5.436;2022-09-27T13:58:48;3.47;;;1.95;;
73980;SDS011;62348;51.412;5.436;2022-09-27T14:04:19;4.40;;;2.33;;
73980;SDS011;62348;51.412;5.436;2022-09-27T14:06:57;5.25;;;2.40;;
73980;SDS011;62348;51.412;5.436;2022-09-27T14:09:28;6.82;;;2.63;;
73980;SDS011;62348;51.412;5.436;2022-09-27T14:12:09;3.25;;;2.38;;
73980;SDS011;62348;51.412;5.436;2022-09-27T14:14:39;5.63;;;2.45;;
73980;SDS011;62348;51.412;5.436;2022-09-27T14:17:06;9.60;;;2.60;;
73980;SDS011;62348;51.412;5.436;2022-09-27T14:19:36;6.75;;;2.58;;
73980;SDS011;62348;51.412;5.436;2022-09-27T14:22:09;8.10;;;2.60;;
73980;SDS011;62348;51.412;5.436;2022-09-27T14:27:08;7.32;;;2.40;;
73980;SDS011;62348;51.412;5.436;2022-09-27T14:29:39;5.88;;;2.25;;
73980;SDS011;62348;51.412;5.436;2022-09-27T14:32:11;6.20;;;2.00;;
73980;SDS011;62348;51.412;5.436;2022-09-27T14:34:39;4.60;;;2.23;;
73980;SDS011;62348;51.412;5.436;2022-09-27T14:37:05;4.30;;;2.25;;
73980;SDS011;62348;51.412;5.436;2022-09-27T14:39:52;4.85;;;1.85;;
73980;SDS011;62348;51.412;5.436;2022-09-27T14:42:20;6.47;;;2.50;;
73980;SDS011;62348;51.412;5.436;2022-09-27T14:44:49;4.75;;;1.73;;
73980;SDS011;62348;51.412;5.436;2022-09-27T14:47:23;4.10;;;1.63;;
73980;SDS011;62348;51.412;5.436;2022-09-27T14:49:51;3.28;;;1.63;;
73980;SDS011;62348;51.412;5.436;2022-09-27T14:52:29;2.83;;;1.27;;
73980;SDS011;62348;51.412;5.436;2022-09-27T14:55:01;7.25;;;1.85;;
73980;SDS011;62348;51.412;5.436;2022-09-27T14:57:37;4.38;;;1.23;;
73980;SDS011;62348;51.412;5.436;2022-09-27T15:00:15;2.83;;;1.20;;
73980;SDS011;62348;51.412;5.436;2022-09-27T15:02:45;4.07;;;1.50;;
73980;SDS011;62348;51.412;5.436;2022-09-27T15:05:15;4.57;;;1.83;;
73980;SDS011;62348;51.412;5.436;2022-09-27T15:07:46;1.70;;;1.00;;
73980;SDS011;62348;51.412;5.436;2022-09-27T15:10:16;3.58;;;1.15;;
73980;SDS011;62348;51.412;5.436;2022-09-27T15:12:48;4.78;;;1.90;;
73980;SDS011;62348;51.412;5.436;2022-09-27T15:15:20;4.03;;;1.73;;
73980;SDS011;62348;51.412;5.436;2022-09-27T15:17:48;2.60;;;1.15;;
73980;SDS011;62348;51.412;5.436;2022-09-27T15:20:21;5.35;;;1.65;;
73980;SDS011;62348;51.412;5.436;2022-09-27T15:22:52;5.55;;;1.42;;
73980;SDS011;62348;51.412;5.436;2022-09-27T15:25:32;4.25;;;2.08;;
73980;SDS011;62348;51.412;5.436;2022-09-27T15:30:41;3.13;;;1.48;;
73980;SDS011;62348;51.412;5.436;2022-09-27T15:33:19;4.25;;;1.90;;
73980;SDS011;62348;51.412;5.436;2022-09-27T15:35:53;4.85;;;1.90;;
73980;SDS011;62348;51.412;5.436;2022-09-27T15:43:21;3.97;;;2.17;;
73980;SDS011;62348;51.412;5.436;2022-09-27T15:45:54;6.30;;;2.20;;
73980;SDS011;62348;51.412;5.436;2022-09-27T15:48:21;9.73;;;4.47;;
73980;SDS011;62348;51.412;5.436;2022-09-27T15:50:47;6.82;;;2.20;;
73980;SDS011;62348;51.412;5.436;2022-09-27T15:55:57;3.95;;;1.63;;
73980;SDS011;62348;51.412;5.436;2022-09-27T15:58:23;5.80;;;2.17;;
73980;SDS011;62348;51.412;5.436;2022-09-27T16:00:53;3.78;;;1.83;;
73980;SDS011;62348;51.412;5.436;2022-09-27T16:03:24;4.38;;;1.40;;
73980;SDS011;62348;51.412;5.436;2022-09-27T16:05:51;7.80;;;1.60;;
73980;SDS011;62348;51.412;5.436;2022-09-27T16:08:20;3.13;;;1.58;;
73980;SDS011;62348;51.412;5.436;2022-09-27T16:10:47;8.57;;;2.95;;
73980;SDS011;62348;51.412;5.436;2022-09-27T16:13:19;3.53;;;1.40;;
73980;SDS011;62348;51.412;5.436;2022-09-27T16:15:44;4.50;;;1.80;;
73980;SDS011;62348;51.412;5.436;2022-09-27T16:18:11;3.95;;;1.70;;
73980;SDS011;62348;51.412;5.436;2022-09-27T16:20:37;5.70;;;1.67;;
73980;SDS011;62348;51.412;5.436;2022-09-27T16:23:03;6.18;;;2.03;;
73980;SDS011;62348;51.412;5.436;2022-09-27T16:25:28;4.00;;;1.70;;
73980;SDS011;62348;51.412;5.436;2022-09-27T16:27:58;6.95;;;1.73;;
73980;SDS011;62348;51.412;5.436;2022-09-27T16:30:24;2.35;;;1.65;;
73980;SDS011;62348;51.412;5.436;2022-09-27T16:32:51;4.28;;;1.73;;
73980;SDS011;62348;51.412;5.436;2022-09-27T16:35:18;5.68;;;1.92;;
73980;SDS011;62348;51.412;5.436;2022-09-27T16:37:46;3.42;;;1.70;;
73980;SDS011;62348;51.412;5.436;2022-09-27T16:40:12;4.03;;;2.17;;
73980;SDS011;62348;51.412;5.436;2022-09-27T16:42:39;6.57;;;1.75;;
73980;SDS011;62348;51.412;5.436;2022-09-27T16:45:05;3.97;;;1.50;;
73980;SDS011;62348;51.412;5.436;2022-09-27T16:47:31;5.30;;;2.22;;
73980;SDS011;62348;51.412;5.436;2022-09-27T16:49:57;3.58;;;2.00;;
73980;SDS011;62348;51.412;5.436;2022-09-27T16:52:41;3.85;;;1.77;;
73980;SDS011;62348;51.412;5.436;2022-09-27T16:55:11;3.72;;;1.77;;
73980;SDS011;62348;51.412;5.436;2022-09-27T16:57:45;3.47;;;1.63;;
73980;SDS011;62348;51.412;5.436;2022-09-27T17:00:11;2.40;;;1.42;;
73980;SDS011;62348;51.412;5.436;2022-09-27T17:02:37;2.08;;;1.35;;
73980;SDS011;62348;51.412;5.436;2022-09-27T17:05:02;4.20;;;1.83;;
73980;SDS011;62348;51.412;5.436;2022-09-27T17:07:28;5.40;;;1.98;;
73980;SDS011;62348;51.412;5.436;2022-09-27T17:09:53;2.97;;;1.77;;
73980;SDS011;62348;51.412;5.436;2022-09-27T17:12:19;5.88;;;1.92;;
73980;SDS011;62348;51.412;5.436;2022-09-27T17:14:44;6.05;;;2.05;;
73980;SDS011;62348;51.412;5.436;2022-09-27T17:17:10;3.25;;;2.10;;
73980;SDS011;62348;51.412;5.436;2022-09-27T17:19:35;3.58;;;1.88;;
73980;SDS011;62348;51.412;5.436;2022-09-27T17:22:03;5.03;;;1.90;;
73980;SDS011;62348;51.412;5.436;2022-09-27T17:24:30;4.85;;;1.73;;
73980;SDS011;62348;51.412;5.436;2022-09-27T17:26:55;4.43;;;1.75;;
73980;SDS011;62348;51.412;5.436;2022-09-27T17:29:21;5.00;;;1.60;;
73980;SDS011;62348;51.412;5.436;2022-09-27T17:31:46;3.65;;;1.88;;
73980;SDS011;62348;51.412;5.436;2022-09-27T17:34:12;4.82;;;1.70;;
73980;SDS011;62348;51.412;5.436;2022-09-27T17:36:38;4.03;;;1.63;;
73980;SDS011;62348;51.412;5.436;2022-09-27T17:39:06;5.35;;;1.60;;
73980;SDS011;62348;51.412;5.436;2022-09-27T17:41:36;3.75;;;1.55;;
73980;SDS011;62348;51.412;5.436;2022-09-27T17:44:03;4.55;;;1.30;;
73980;SDS011;62348;51.412;5.436;2022-09-27T17:46:33;3.45;;;1.38;;
73980;SDS011;62348;51.412;5.436;2022-09-27T17:48:59;4.28;;;1.50;;